sensor_id;sensor_type;location;lat;lon;timestamp;pressure;altitude;pressure_sealevel;temperature;humidity
58662;BME280;44432;49.786;22.760;2023-02-13T00:01:08;101329.73;;;-3.87;82.71
58662;BME280;44432;49.786;22.760;2023-02-13T00:03:38;101326.23;;;-3.82;82.81
58662;BME280;44432;49.786;22.760;2023-02-13T00:06:09;101322.23;;;-3.78;82.68
58662;BME280;44432;49.786;22.760;2023-02-13T00:08:40;101317.11;;;-3.71;82.96
58662;BME280;44432;49.786;22.760;2023-02-13T00:11:11;101316.27;;;-3.65;83.02
58662;BME280;44432;49.786;22.760;2023-02-13T00:13:41;101311.26;;;-3.57;83.13
58662;BME280;44432;49.786;22.760;2023-02-13T00:16:12;101316.08;;;-3.49;83.01
58662;BME280;44432;49.786;22.760;2023-02-13T00:18:43;101308.79;;;-3.41;83.07
58662;BME280;44432;49.786;22.760;2023-02-13T00:21:15;101303.05;;;-3.33;83.08
58662;BME280;44432;49.786;22.760;2023-02-13T00:23:46;101301.12;;;-3.25;82.99
58662;BME280;44432;49.786;22.760;2023-02-13T00:26:17;101298.61;;;-3.20;82.91
58662;BME280;44432;49.786;22.760;2023-02-13T00:28:48;101299.06;;;-3.15;82.67
58662;BME280;44432;49.786;22.760;2023-02-13T00:31:20;101297.70;;;-3.12;82.37
58662;BME280;44432;49.786;22.760;2023-02-13T00:33:51;101301.16;;;-3.09;82.37
58662;BME280;44432;49.786;22.760;2023-02-13T00:36:23;101294.50;;;-3.07;82.35
58662;BME280;44432;49.786;22.760;2023-02-13T00:38:54;101294.31;;;-3.03;82.34
58662;BME280;44432;49.786;22.760;2023-02-13T00:41:24;101294.95;;;-2.99;82.38
58662;BME280;44432;49.786;22.760;2023-02-13T00:43:55;101291.56;;;-2.96;82.19
58662;BME280;44432;49.786;22.760;2023-02-13T00:46:26;101284.00;;;-2.93;82.13
58662;BME280;44432;49.786;22.760;2023-02-13T00:48:56;101280.75;;;-2.90;82.07
58662;BME280;44432;49.786;22.760;2023-02-13T00:51:27;101278.00;;;-2.87;82.25
58662;BME280;44432;49.786;22.760;2023-02-13T00:53:58;101270.25;;;-2.87;81.94
58662;BME280;44432;49.786;22.760;2023-02-13T00:56:29;101269.31;;;-2.82;82.01
58662;BME280;44432;49.786;22.760;2023-02-13T00:59:00;101268.38;;;-2.81;81.99
58662;BME280;44432;49.786;22.760;2023-02-13T01:01:30;101267.52;;;-2.81;81.72
58662;BME280;44432;49.786;22.760;2023-02-13T01:04:01;101265.00;;;-2.82;81.91
58662;BME280;44432;49.786;22.760;2023-02-13T01:06:32;101263.58;;;-2.88;81.73
58662;BME280;44432;49.786;22.760;2023-02-13T01:09:03;101272.48;;;-2.90;81.68
58662;BME280;44432;49.786;22.760;2023-02-13T01:11:34;101275.73;;;-2.93;81.66
58662;BME280;44432;49.786;22.760;2023-02-13T01:14:05;101272.59;;;-2.96;81.86
58662;BME280;44432;49.786;22.760;2023-02-13T01:16:35;101259.71;;;-2.97;81.97
58662;BME280;44432;49.786;22.760;2023-02-13T01:19:06;101252.10;;;-2.96;82.23
58662;BME280;44432;49.786;22.760;2023-02-13T01:21:37;101252.33;;;-2.90;82.48
58662;BME280;44432;49.786;22.760;2023-02-13T01:24:08;101243.30;;;-2.86;82.52
58662;BME280;44432;49.786;22.760;2023-02-13T01:26:39;101244.79;;;-2.81;82.47
58662;BME280;44432;49.786;22.760;2023-02-13T01:29:12;101241.80;;;-2.77;82.48
58662;BME280;44432;49.786;22.760;2023-02-13T01:31:43;101238.77;;;-2.71;82.60
58662;BME280;44432;49.786;22.760;2023-02-13T01:34:13;101234.42;;;-2.67;82.56
58662;BME280;44432;49.786;22.760;2023-02-13T01:36:44;101235.14;;;-2.65;82.48
58662;BME280;44432;49.786;22.760;2023-02-13T01:39:15;101229.87;;;-2.63;82.50
58662;BME280;44432;49.786;22.760;2023-02-13T01:41:45;101227.91;;;-2.62;82.54
58662;BME280;44432;49.786;22.760;2023-02-13T01:44:47;101225.31;;;-2.58;82.60
58662;BME280;44432;49.786;22.760;2023-02-13T01:47:25;101223.85;;;-2.56;82.45
58662;BME280;44432;49.786;22.760;2023-02-13T01:50:03;101223.23;;;-2.54;82.53
58662;BME280;44432;49.786;22.760;2023-02-13T01:52:38;101221.75;;;-2.53;82.44
58662;BME280;44432;49.786;22.760;2023-02-13T01:55:11;101218.80;;;-2.52;82.37
58662;BME280;44432;49.786;22.760;2023-02-13T01:57:47;101218.02;;;-2.50;82.47
58662;BME280;44432;49.786;22.760;2023-02-13T02:00:21;101218.23;;;-2.51;82.54
58662;BME280;44432;49.786;22.760;2023-02-13T02:02:57;101222.39;;;-2.48;82.37
58662;BME280;44432;49.786;22.760;2023-02-13T02:05:31;101223.92;;;-2.48;82.48
58662;BME280;44432;49.786;22.760;2023-02-13T02:08:05;101220.41;;;-2.47;82.49
58662;BME280;44432;49.786;22.760;2023-02-13T02:10:39;101213.46;;;-2.46;82.47
58662;BME280;44432;49.786;22.760;2023-02-13T02:13:13;101209.10;;;-2.45;82.52
58662;BME280;44432;49.786;22.760;2023-02-13T02:15:45;101203.83;;;-2.43;82.56
58662;BME280;44432;49.786;22.760;2023-02-13T02:18:19;101195.67;;;-2.42;82.73
58662;BME280;44432;49.786;22.760;2023-02-13T02:24:27;101194.48;;;-2.40;82.62
58662;BME280;44432;49.786;22.760;2023-02-13T02:27:27;101189.70;;;-2.34;82.76
58662;BME280;44432;49.786;22.760;2023-02-13T02:33:13;101180.29;;;-2.25;82.75
58662;BME280;44432;49.786;22.760;2023-02-13T02:35:54;101182.15;;;-2.22;82.79
58662;BME280;44432;49.786;22.760;2023-02-13T02:38:39;101179.05;;;-2.19;82.66
58662;BME280;44432;49.786;22.760;2023-02-13T02:41:16;101181.06;;;-2.15;82.75
58662;BME280;44432;49.786;22.760;2023-02-13T02:44:16;101182.54;;;-2.10;82.71
58662;BME280;44432;49.786;22.760;2023-02-13T02:46:52;101183.11;;;-2.06;82.67
58662;BME280;44432;49.786;22.760;2023-02-13T02:49:41;101183.60;;;-2.02;82.99
58662;BME280;44432;49.786;22.760;2023-02-13T02:52:38;101188.00;;;-1.98;83.11
58662;BME280;44432;49.786;22.760;2023-02-13T02:55:17;101187.45;;;-1.93;82.87
58662;BME280;44432;49.786;22.760;2023-02-13T02:57:58;101185.23;;;-1.91;82.83
58662;BME280;44432;49.786;22.760;2023-02-13T03:00:50;101183.59;;;-1.83;82.90
58662;BME280;44432;49.786;22.760;2023-02-13T03:03:40;101186.98;;;-1.79;82.82
58662;BME280;44432;49.786;22.760;2023-02-13T03:06:33;101179.42;;;-1.77;82.82
58662;BME280;44432;49.786;22.760;2023-02-13T03:09:12;101184.44;;;-1.71;82.76
58662;BME280;44432;49.786;22.760;2023-02-13T03:12:02;101182.44;;;-1.66;82.76
58662;BME280;44432;49.786;22.760;2023-02-13T03:14:51;101186.27;;;-1.61;82.84
58662;BME280;44432;49.786;22.760;2023-02-13T03:17:21;101187.23;;;-1.56;82.92
58662;BME280;44432;49.786;22.760;2023-02-13T03:20:16;101182.63;;;-1.51;82.83
58662;BME280;44432;49.786;22.760;2023-02-13T03:23:28;101177.51;;;-1.47;82.92
58662;BME280;44432;49.786;22.760;2023-02-13T03:26:11;101177.13;;;-1.43;82.83
58662;BME280;44432;49.786;22.760;2023-02-13T03:28:44;101173.80;;;-1.36;82.95
58662;BME280;44432;49.786;22.760;2023-02-13T03:31:43;101168.21;;;-1.30;83.09
58662;BME280;44432;49.786;22.760;2023-02-13T03:34:21;101165.69;;;-1.25;82.99
58662;BME280;44432;49.786;22.760;2023-02-13T03:36:58;101168.64;;;-1.19;83.06
58662;BME280;44432;49.786;22.760;2023-02-13T03:40:02;101167.66;;;-1.12;82.98
58662;BME280;44432;49.786;22.760;2023-02-13T03:42:38;101166.63;;;-1.06;82.91
58662;BME280;44432;49.786;22.760;2023-02-13T03:45:13;101172.66;;;-1.01;82.95
58662;BME280;44432;49.786;22.760;2023-02-13T03:48:07;101176.06;;;-0.94;82.99
58662;BME280;44432;49.786;22.760;2023-02-13T03:50:57;101171.67;;;-0.87;83.19
58662;BME280;44432;49.786;22.760;2023-02-13T03:53:32;101173.09;;;-0.82;82.89
58662;BME280;44432;49.786;22.760;2023-02-13T03:56:06;101177.95;;;-0.77;82.77
58662;BME280;44432;49.786;22.760;2023-02-13T03:58:58;101176.60;;;-0.71;82.81
58662;BME280;44432;49.786;22.760;2023-02-13T04:01:49;101175.25;;;-0.66;82.68
58662;BME280;44432;49.786;22.760;2023-02-13T04:04:30;101169.42;;;-0.61;82.85
58662;BME280;44432;49.786;22.760;2023-02-13T04:07:07;101163.59;;;-0.57;82.66
58662;BME280;44432;49.786;22.760;2023-02-13T04:09:41;101162.92;;;-0.52;82.56
58662;BME280;44432;49.786;22.760;2023-02-13T04:12:17;101160.48;;;-0.48;82.22
58662;BME280;44432;49.786;22.760;2023-02-13T04:14:52;101156.84;;;-0.45;82.25
58662;BME280;44432;49.786;22.760;2023-02-13T04:17:29;101152.90;;;-0.44;82.13
58662;BME280;44432;49.786;22.760;2023-02-13T04:20:00;101149.52;;;-0.42;82.31
58662;BME280;44432;49.786;22.760;2023-02-13T04:22:31;101152.44;;;-0.42;82.11
58662;BME280;44432;49.786;22.760;2023-02-13T04:25:02;101151.28;;;-0.40;82.15
58662;BME280;44432;49.786;22.760;2023-02-13T04:27:33;101154.77;;;-0.38;82.16
58662;BME280;44432;49.786;22.760;2023-02-13T04:30:05;101153.54;;;-0.37;82.13
58662;BME280;44432;49.786;22.760;2023-02-13T04:32:36;101151.40;;;-0.36;82.23
58662;BME280;44432;49.786;22.760;2023-02-13T04:35:07;101146.86;;;-0.36;82.09
58662;BME280;44432;49.786;22.760;2023-02-13T04:37:39;101144.33;;;-0.34;82.16
58662;BME280;44432;49.786;22.760;2023-02-13T04:40:12;101142.58;;;-0.30;82.20
58662;BME280;44432;49.786;22.760;2023-02-13T04:42:43;101139.13;;;-0.28;82.38
58662;BME280;44432;49.786;22.760;2023-02-13T04:45:14;101136.48;;;-0.24;82.30
58662;BME280;44432;49.786;22.760;2023-02-13T04:47:50;101136.66;;;-0.22;82.21
58662;BME280;44432;49.786;22.760;2023-02-13T04:50:22;101148.80;;;-0.20;82.19
58662;BME280;44432;49.786;22.760;2023-02-13T04:52:55;101149.58;;;-0.18;82.26
58662;BME280;44432;49.786;22.760;2023-02-13T04:55:27;101145.79;;;-0.16;82.23
58662;BME280;44432;49.786;22.760;2023-02-13T04:57:58;101143.52;;;-0.13;82.25
58662;BME280;44432;49.786;22.760;2023-02-13T05:00:29;101139.58;;;-0.11;82.25
58662;BME280;44432;49.786;22.760;2023-02-13T05:03:05;101139.55;;;-0.08;82.23
58662;BME280;44432;49.786;22.760;2023-02-13T05:05:36;101139.77;;;-0.06;82.24
58662;BME280;44432;49.786;22.760;2023-02-13T05:08:07;101133.86;;;-0.03;82.16
58662;BME280;44432;49.786;22.760;2023-02-13T05:10:38;101127.39;;;0.00;82.43
58662;BME280;44432;49.786;22.760;2023-02-13T05:13:09;101131.22;;;0.06;82.56
58662;BME280;44432;49.786;22.760;2023-02-13T05:15:40;101133.73;;;0.12;82.69
58662;BME280;44432;49.786;22.760;2023-02-13T05:18:10;101133.45;;;0.19;82.78
58662;BME280;44432;49.786;22.760;2023-02-13T05:20:41;101126.92;;;0.26;82.88
58662;BME280;44432;49.786;22.760;2023-02-13T05:23:13;101125.61;;;0.33;82.66
58662;BME280;44432;49.786;22.760;2023-02-13T05:25:54;101128.31;;;0.39;82.64
58662;BME280;44432;49.786;22.760;2023-02-13T05:28:25;101126.86;;;0.43;82.49
58662;BME280;44432;49.786;22.760;2023-02-13T05:31:14;101128.34;;;0.46;82.43
58662;BME280;44432;49.786;22.760;2023-02-13T05:33:44;101130.35;;;0.50;82.22
58662;BME280;44432;49.786;22.760;2023-02-13T05:36:15;101127.11;;;0.52;82.09
58662;BME280;44432;49.786;22.760;2023-02-13T05:38:45;101125.66;;;0.53;81.92
58662;BME280;44432;49.786;22.760;2023-02-13T05:41:16;101125.44;;;0.54;81.87
58662;BME280;44432;49.786;22.760;2023-02-13T05:43:47;101129.96;;;0.56;81.96
58662;BME280;44432;49.786;22.760;2023-02-13T05:46:18;101129.86;;;0.57;81.80
58662;BME280;44432;49.786;22.760;2023-02-13T05:48:49;101129.97;;;0.60;81.93
58662;BME280;44432;49.786;22.760;2023-02-13T05:51:21;101123.96;;;0.65;81.98
58662;BME280;44432;49.786;22.760;2023-02-13T05:53:51;101121.23;;;0.69;82.04
58662;BME280;44432;49.786;22.760;2023-02-13T05:56:22;101118.93;;;0.73;82.09
58662;BME280;44432;49.786;22.760;2023-02-13T05:58:53;101119.80;;;0.78;81.78
58662;BME280;44432;49.786;22.760;2023-02-13T06:01:25;101125.93;;;0.82;81.86
58662;BME280;44432;49.786;22.760;2023-02-13T06:03:55;101123.06;;;0.83;81.69
58662;BME280;44432;49.786;22.760;2023-02-13T06:06:26;101129.09;;;0.89;81.66
58662;BME280;44432;49.786;22.760;2023-02-13T06:08:57;101125.91;;;0.92;81.58
58662;BME280;44432;49.786;22.760;2023-02-13T06:11:27;101129.80;;;0.96;81.60
58662;BME280;44432;49.786;22.760;2023-02-13T06:13:58;101125.41;;;1.00;81.45
58662;BME280;44432;49.786;22.760;2023-02-13T06:16:29;101127.44;;;1.03;81.73
58662;BME280;44432;49.786;22.760;2023-02-13T06:19:00;101119.02;;;1.06;81.45
58662;BME280;44432;49.786;22.760;2023-02-13T06:21:31;101113.69;;;1.11;81.52
58662;BME280;44432;49.786;22.760;2023-02-13T06:24:07;101115.12;;;1.15;81.58
58662;BME280;44432;49.786;22.760;2023-02-13T06:26:38;101118.06;;;1.20;81.43
58662;BME280;44432;49.786;22.760;2023-02-13T06:29:09;101118.52;;;1.23;81.64
58662;BME280;44432;49.786;22.760;2023-02-13T06:31:41;101115.20;;;1.31;81.64
58662;BME280;44432;49.786;22.760;2023-02-13T06:34:11;101115.52;;;1.36;81.84
58662;BME280;44432;49.786;22.760;2023-02-13T06:36:42;101110.83;;;1.44;81.82
58662;BME280;44432;49.786;22.760;2023-02-13T06:39:13;101111.89;;;1.51;81.61
58662;BME280;44432;49.786;22.760;2023-02-13T06:41:44;101108.71;;;1.54;81.80
58662;BME280;44432;49.786;22.760;2023-02-13T06:44:14;101119.20;;;1.60;81.60
58662;BME280;44432;49.786;22.760;2023-02-13T06:46:45;101122.70;;;1.64;81.53
58662;BME280;44432;49.786;22.760;2023-02-13T06:49:16;101125.23;;;1.68;81.52
58662;BME280;44432;49.786;22.760;2023-02-13T06:51:47;101125.05;;;1.71;81.80
58662;BME280;44432;49.786;22.760;2023-02-13T06:54:17;101127.56;;;1.74;81.81
58662;BME280;44432;49.786;22.760;2023-02-13T06:56:48;101126.48;;;1.77;81.72
58662;BME280;44432;49.786;22.760;2023-02-13T06:59:19;101131.30;;;1.80;81.89
58662;BME280;44432;49.786;22.760;2023-02-13T07:01:50;101131.81;;;1.82;81.93
58662;BME280;44432;49.786;22.760;2023-02-13T07:04:20;101132.77;;;1.83;81.85
58662;BME280;44432;49.786;22.760;2023-02-13T07:06:51;101131.60;;;1.85;82.00
58662;BME280;44432;49.786;22.760;2023-02-13T07:09:23;101134.52;;;1.88;82.44
58662;BME280;44432;49.786;22.760;2023-02-13T07:11:54;101131.94;;;1.90;82.35
58662;BME280;44432;49.786;22.760;2023-02-13T07:14:25;101127.81;;;1.90;82.45
58662;BME280;44432;49.786;22.760;2023-02-13T07:16:56;101135.25;;;1.92;82.81
58662;BME280;44432;49.786;22.760;2023-02-13T07:19:27;101133.84;;;1.92;82.88
58662;BME280;44432;49.786;22.760;2023-02-13T07:21:57;101134.52;;;1.98;83.20
58662;BME280;44432;49.786;22.760;2023-02-13T07:24:28;101137.27;;;2.03;82.99
58662;BME280;44432;49.786;22.760;2023-02-13T07:26:59;101133.64;;;2.07;83.34
58662;BME280;44432;49.786;22.760;2023-02-13T07:29:30;101131.25;;;2.11;83.49
58662;BME280;44432;49.786;22.760;2023-02-13T07:32:00;101127.11;;;2.15;83.57
58662;BME280;44432;49.786;22.760;2023-02-13T07:34:31;101128.95;;;2.19;83.56
58662;BME280;44432;49.786;22.760;2023-02-13T07:37:02;101132.59;;;2.19;83.23
58662;BME280;44432;49.786;22.760;2023-02-13T07:39:32;101136.08;;;2.21;83.58
58662;BME280;44432;49.786;22.760;2023-02-13T07:42:05;101135.89;;;2.21;83.81
58662;BME280;44432;49.786;22.760;2023-02-13T07:44:35;101137.70;;;2.22;84.07
58662;BME280;44432;49.786;22.760;2023-02-13T07:47:06;101139.14;;;2.24;83.96
58662;BME280;44432;49.786;22.760;2023-02-13T07:49:37;101139.65;;;2.26;84.27
58662;BME280;44432;49.786;22.760;2023-02-13T07:52:08;101134.12;;;2.31;84.01
58662;BME280;44432;49.786;22.760;2023-02-13T07:54:39;101141.31;;;2.35;84.09
58662;BME280;44432;49.786;22.760;2023-02-13T07:57:15;101140.60;;;2.42;83.88
58662;BME280;44432;49.786;22.760;2023-02-13T07:59:46;101137.72;;;2.52;84.45
58662;BME280;44432;49.786;22.760;2023-02-13T08:02:17;101127.45;;;2.64;84.20
58662;BME280;44432;49.786;22.760;2023-02-13T08:04:48;101131.71;;;2.74;84.09
58662;BME280;44432;49.786;22.760;2023-02-13T08:07:19;101134.07;;;2.80;83.98
58662;BME280;44432;49.786;22.760;2023-02-13T08:09:49;101135.56;;;2.83;83.90
58662;BME280;44432;49.786;22.760;2023-02-13T08:12:38;101134.24;;;2.91;83.92
58662;BME280;44432;49.786;22.760;2023-02-13T08:15:11;101130.21;;;2.96;83.79
58662;BME280;44432;49.786;22.760;2023-02-13T08:17:42;101134.79;;;3.00;83.64
58662;BME280;44432;49.786;22.760;2023-02-13T08:20:13;101131.23;;;3.08;83.77
58662;BME280;44432;49.786;22.760;2023-02-13T08:22:44;101125.67;;;3.18;83.81
58662;BME280;44432;49.786;22.760;2023-02-13T08:25:15;101123.92;;;3.27;83.86
58662;BME280;44432;49.786;22.760;2023-02-13T08:27:47;101122.45;;;3.35;83.54
58662;BME280;44432;49.786;22.760;2023-02-13T08:30:18;101120.00;;;3.42;83.51
58662;BME280;44432;49.786;22.760;2023-02-13T08:32:49;101123.88;;;3.50;83.51
58662;BME280;44432;49.786;22.760;2023-02-13T08:35:19;101125.65;;;3.54;83.30
58662;BME280;44432;49.786;22.760;2023-02-13T08:37:51;101124.67;;;3.55;83.17
58662;BME280;44432;49.786;22.760;2023-02-13T08:40:22;101118.11;;;3.58;82.91
58662;BME280;44432;49.786;22.760;2023-02-13T08:42:53;101120.10;;;3.64;82.92
58662;BME280;44432;49.786;22.760;2023-02-13T08:45:28;101112.98;;;3.68;82.98
58662;BME280;44432;49.786;22.760;2023-02-13T08:48:00;101109.48;;;3.73;82.75
58662;BME280;44432;49.786;22.760;2023-02-13T08:50:32;101114.13;;;3.82;82.88
58662;BME280;44432;49.786;22.760;2023-02-13T08:53:03;101119.02;;;3.88;82.66
58662;BME280;44432;49.786;22.760;2023-02-13T08:55:34;101113.55;;;3.93;82.55
58662;BME280;44432;49.786;22.760;2023-02-13T08:58:05;101114.29;;;4.00;82.70
58662;BME280;44432;49.786;22.760;2023-02-13T09:00:35;101112.55;;;4.06;82.67
58662;BME280;44432;49.786;22.760;2023-02-13T09:03:06;101112.52;;;4.08;82.21
58662;BME280;44432;49.786;22.760;2023-02-13T09:05:37;101107.89;;;4.05;81.86
58662;BME280;44432;49.786;22.760;2023-02-13T09:08:08;101104.45;;;4.05;82.08
58662;BME280;44432;49.786;22.760;2023-02-13T09:10:42;101103.62;;;4.11;82.20
58662;BME280;44432;49.786;22.760;2023-02-13T09:13:13;101104.09;;;4.17;82.34
58662;BME280;44432;49.786;22.760;2023-02-13T09:15:43;101105.38;;;4.26;82.35
58662;BME280;44432;49.786;22.760;2023-02-13T09:18:14;101104.69;;;4.33;82.14
58662;BME280;44432;49.786;22.760;2023-02-13T09:20:45;101098.34;;;4.36;81.82
58662;BME280;44432;49.786;22.760;2023-02-13T09:23:16;101095.27;;;4.37;81.70
58662;BME280;44432;49.786;22.760;2023-02-13T09:25:46;101100.11;;;4.38;81.61
58662;BME280;44432;49.786;22.760;2023-02-13T09:28:17;101097.72;;;4.41;81.69
58662;BME280;44432;49.786;22.760;2023-02-13T09:30:48;101094.17;;;4.46;81.62
58662;BME280;44432;49.786;22.760;2023-02-13T09:33:19;101095.79;;;4.49;81.44
58662;BME280;44432;49.786;22.760;2023-02-13T09:35:50;101091.96;;;4.53;81.35
58662;BME280;44432;49.786;22.760;2023-02-13T09:38:21;101099.65;;;4.55;81.12
58662;BME280;44432;49.786;22.760;2023-02-13T09:40:54;101101.39;;;4.57;81.21
58662;BME280;44432;49.786;22.760;2023-02-13T09:43:29;101096.57;;;4.61;81.00
58662;BME280;44432;49.786;22.760;2023-02-13T09:46:06;101095.27;;;4.62;80.91
58662;BME280;44432;49.786;22.760;2023-02-13T09:48:41;101096.95;;;4.69;81.23
58662;BME280;44432;49.786;22.760;2023-02-13T09:51:17;101096.23;;;4.75;81.39
58662;BME280;44432;49.786;22.760;2023-02-13T09:53:53;101090.50;;;4.75;80.96
58662;BME280;44432;49.786;22.760;2023-02-13T09:56:36;101084.11;;;4.74;80.93
58662;BME280;44432;49.786;22.760;2023-02-13T09:59:19;101077.66;;;4.74;81.02
58662;BME280;44432;49.786;22.760;2023-02-13T10:01:59;101074.99;;;4.75;80.94
58662;BME280;44432;49.786;22.760;2023-02-13T10:04:34;101071.46;;;4.79;80.86
58662;BME280;44432;49.786;22.760;2023-02-13T10:07:19;101067.23;;;4.88;80.75
58662;BME280;44432;49.786;22.760;2023-02-13T10:09:59;101058.45;;;4.99;80.69
58662;BME280;44432;49.786;22.760;2023-02-13T10:12:43;101065.50;;;5.12;80.76
58662;BME280;44432;49.786;22.760;2023-02-13T10:15:22;101057.09;;;5.20;80.36
58662;BME280;44432;49.786;22.760;2023-02-13T10:18:00;101058.32;;;5.22;80.18
58662;BME280;44432;49.786;22.760;2023-02-13T10:20:36;101057.31;;;5.25;80.23
58662;BME280;44432;49.786;22.760;2023-02-13T10:23:17;101060.64;;;5.35;80.32
58662;BME280;44432;49.786;22.760;2023-02-13T10:25:55;101055.62;;;5.50;80.18
58662;BME280;44432;49.786;22.760;2023-02-13T10:28:33;101055.91;;;5.66;80.05
58662;BME280;44432;49.786;22.760;2023-02-13T10:31:08;101057.60;;;5.79;79.19
58662;BME280;44432;49.786;22.760;2023-02-13T10:33:45;101056.36;;;5.79;78.78
58662;BME280;44432;49.786;22.760;2023-02-13T10:36:20;101059.42;;;5.78;78.86
58662;BME280;44432;49.786;22.760;2023-02-13T10:38:56;101059.37;;;5.76;78.84
58662;BME280;44432;49.786;22.760;2023-02-13T10:41:39;101061.57;;;5.83;78.79
58662;BME280;44432;49.786;22.760;2023-02-13T10:44:22;101060.39;;;5.86;78.59
58662;BME280;44432;49.786;22.760;2023-02-13T10:47:06;101056.69;;;5.87;78.80
58662;BME280;44432;49.786;22.760;2023-02-13T10:49:50;101055.75;;;5.87;78.39
58662;BME280;44432;49.786;22.760;2023-02-13T10:52:36;101053.59;;;5.88;77.92
58662;BME280;44432;49.786;22.760;2023-02-13T10:55:20;101056.70;;;5.88;78.33
58662;BME280;44432;49.786;22.760;2023-02-13T10:58:08;101056.29;;;5.87;78.01
58662;BME280;44432;49.786;22.760;2023-02-13T11:00:47;101050.76;;;5.81;77.70
58662;BME280;44432;49.786;22.760;2023-02-13T11:03:22;101045.24;;;5.82;78.38
58662;BME280;44432;49.786;22.760;2023-02-13T11:05:54;101041.21;;;5.84;77.85
58662;BME280;44432;49.786;22.760;2023-02-13T11:08:27;101041.23;;;5.84;77.94
58662;BME280;44432;49.786;22.760;2023-02-13T11:11:01;101049.16;;;5.85;78.09
58662;BME280;44432;49.786;22.760;2023-02-13T11:13:31;101051.62;;;5.85;78.00
58662;BME280;44432;49.786;22.760;2023-02-13T11:16:04;101048.17;;;5.82;77.84
58662;BME280;44432;49.786;22.760;2023-02-13T11:18:38;101045.20;;;5.82;77.96
58662;BME280;44432;49.786;22.760;2023-02-13T11:21:13;101046.18;;;5.85;78.07
58662;BME280;44432;49.786;22.760;2023-02-13T11:23:48;101041.63;;;5.85;78.08
58662;BME280;44432;49.786;22.760;2023-02-13T11:26:25;101039.84;;;5.86;78.46
58662;BME280;44432;49.786;22.760;2023-02-13T11:28:58;101034.63;;;5.87;78.03
58662;BME280;44432;49.786;22.760;2023-02-13T11:31:31;101039.06;;;5.84;77.74
58662;BME280;44432;49.786;22.760;2023-02-13T11:34:23;101036.96;;;5.81;77.64
58662;BME280;44432;49.786;22.760;2023-02-13T11:37:06;101035.51;;;5.85;78.51
58662;BME280;44432;49.786;22.760;2023-02-13T11:39:37;101035.95;;;5.94;78.09
58662;BME280;44432;49.786;22.760;2023-02-13T11:42:14;101031.73;;;5.95;77.56
58662;BME280;44432;49.786;22.760;2023-02-13T11:44:50;101029.56;;;5.91;77.53
58662;BME280;44432;49.786;22.760;2023-02-13T11:47:34;101031.86;;;5.95;77.54
58662;BME280;44432;49.786;22.760;2023-02-13T11:50:18;101028.40;;;6.02;78.03
58662;BME280;44432;49.786;22.760;2023-02-13T11:52:56;101033.11;;;6.08;77.78
58662;BME280;44432;49.786;22.760;2023-02-13T11:55:31;101038.48;;;6.14;78.19
58662;BME280;44432;49.786;22.760;2023-02-13T11:58:03;101037.98;;;6.19;77.96
58662;BME280;44432;49.786;22.760;2023-02-13T12:00:50;101026.83;;;6.21;77.34
58662;BME280;44432;49.786;22.760;2023-02-13T12:03:37;101024.59;;;6.17;77.28
58662;BME280;44432;49.786;22.760;2023-02-13T12:06:13;101025.27;;;6.17;77.70
58662;BME280;44432;49.786;22.760;2023-02-13T12:08:46;101025.11;;;6.17;77.30
58662;BME280;44432;49.786;22.760;2023-02-13T12:11:22;101028.67;;;6.09;76.74
58662;BME280;44432;49.786;22.760;2023-02-13T12:13:55;101025.89;;;6.05;77.04
58662;BME280;44432;49.786;22.760;2023-02-13T12:16:30;101023.27;;;6.05;76.71
58662;BME280;44432;49.786;22.760;2023-02-13T12:19:09;101015.81;;;6.04;76.96
58662;BME280;44432;49.786;22.760;2023-02-13T12:21:51;101004.56;;;6.10;77.36
58662;BME280;44432;49.786;22.760;2023-02-13T12:24:40;100998.54;;;6.19;77.41
58662;BME280;44432;49.786;22.760;2023-02-13T12:27:21;101001.17;;;6.22;76.38
58662;BME280;44432;49.786;22.760;2023-02-13T12:30:08;101007.11;;;6.24;76.41
58662;BME280;44432;49.786;22.760;2023-02-13T12:32:50;101003.38;;;6.27;76.50
58662;BME280;44432;49.786;22.760;2023-02-13T12:35:42;100999.84;;;6.35;76.80
58662;BME280;44432;49.786;22.760;2023-02-13T12:38:33;100993.18;;;6.44;76.77
58662;BME280;44432;49.786;22.760;2023-02-13T12:41:18;100989.90;;;6.49;75.60
58662;BME280;44432;49.786;22.760;2023-02-13T12:46:55;100985.83;;;6.53;75.34
58662;BME280;44432;49.786;22.760;2023-02-13T12:50:03;100979.89;;;6.53;75.44
58662;BME280;44432;49.786;22.760;2023-02-13T12:52:45;100974.23;;;6.58;75.84
58662;BME280;44432;49.786;22.760;2023-02-13T12:55:40;100976.00;;;6.59;75.59
58662;BME280;44432;49.786;22.760;2023-02-13T12:58:33;100972.06;;;6.57;75.52
58662;BME280;44432;49.786;22.760;2023-02-13T13:01:18;100967.88;;;6.51;75.07
58662;BME280;44432;49.786;22.760;2023-02-13T13:03:59;100966.31;;;6.51;75.22
58662;BME280;44432;49.786;22.760;2023-02-13T13:06:50;100957.45;;;6.50;75.22
58662;BME280;44432;49.786;22.760;2023-02-13T13:09:58;100954.33;;;6.50;75.08
58662;BME280;44432;49.786;22.760;2023-02-13T13:12:44;100946.98;;;6.53;74.78
58662;BME280;44432;49.786;22.760;2023-02-13T13:15:26;100944.08;;;6.56;75.03
58662;BME280;44432;49.786;22.760;2023-02-13T13:18:07;100939.71;;;6.56;74.61
58662;BME280;44432;49.786;22.760;2023-02-13T13:20:59;100942.66;;;6.59;74.45
58662;BME280;44432;49.786;22.760;2023-02-13T13:23:33;100937.41;;;6.62;74.68
58662;BME280;44432;49.786;22.760;2023-02-13T13:26:13;100931.26;;;6.71;74.33
58662;BME280;44432;49.786;22.760;2023-02-13T13:28:47;100929.33;;;6.80;74.44
58662;BME280;44432;49.786;22.760;2023-02-13T13:31:21;100919.08;;;6.85;73.82
58662;BME280;44432;49.786;22.760;2023-02-13T13:33:59;100916.99;;;6.87;73.51
58662;BME280;44432;49.786;22.760;2023-02-13T13:36:39;100913.03;;;6.88;73.83
58662;BME280;44432;49.786;22.760;2023-02-13T13:39:23;100910.47;;;6.94;73.60